Time,TemperatureF,DewpointF,PressureIn,WindDirection,WindDirectionDegrees,WindSpeedMPH,WindSpeedGustMPH,Humidity,HourlyPrecipIn,Conditions,Clouds,dailyrainin,SoftwareType,DateUTC
2013-08-13 00:00:00,76.9,74.7,29.90,WSW,240,0.0,0.0,93,0.00,,---,0.00,VWS V14.01,2013-08-13 04:00:00,
2013-08-13 00:15:00,76.7,74.5,29.90,WSW,240,0.0,1.0,93,0.00,,---,0.00,VWS V14.01,2013-08-13 04:15:00,
2013-08-13 00:30:00,76.4,74.2,29.90,WSW,240,0.0,1.0,93,0.00,,---,0.00,VWS V14.01,2013-08-13 04:30:00,
2013-08-13 00:45:00,76.4,74.6,29.91,WSW,240,0.0,0.0,94,0.00,,---,0.00,VWS V14.01,2013-08-13 04:45:00,
2013-08-13 01:00:00,76.3,74.4,29.91,WSW,240,0.0,1.0,94,0.00,,---,0.00,VWS V14.01,2013-08-13 05:00:00,
2013-08-13 01:15:00,76.5,74.3,29.91,NNW,345,1.0,2.0,93,0.00,,---,0.00,VWS V14.01,2013-08-13 05:15:00,
2013-08-13 01:30:00,76.8,74.3,29.91,West,281,0.0,2.0,92,0.00,,---,0.00,VWS V14.01,2013-08-13 05:30:00,
2013-08-13 01:45:00,76.6,73.8,29.90,SSW,200,0.0,2.0,91,0.00,,---,0.00,VWS V14.01,2013-08-13 05:45:00,
2013-08-13 02:00:00,76.4,73.9,29.90,SSW,203,0.0,1.0,92,0.00,,---,0.00,VWS V14.01,2013-08-13 06:00:00,
2013-08-13 02:15:00,76.2,73.7,29.89,SSW,203,0.0,0.0,92,0.00,,---,0.00,VWS V14.01,2013-08-13 06:15:00,
2013-08-13 02:30:00,76.1,73.6,29.89,NW,321,0.0,1.0,92,0.00,,---,0.00,VWS V14.01,2013-08-13 06:30:00,
2013-08-13 02:45:00,76.2,73.7,29.88,WSW,255,0.0,1.0,92,0.00,,---,0.00,VWS V14.01,2013-08-13 06:45:00,
2013-08-13 03:00:00,76.2,73.4,29.88,WSW,255,0.0,1.0,91,0.00,,---,0.00,VWS V14.01,2013-08-13 07:00:00,
2013-08-13 03:15:00,75.9,73.1,29.88,WSW,255,0.0,0.0,91,0.00,,---,0.00,VWS V14.01,2013-08-13 07:15:00,
2013-08-13 03:30:00,75.4,72.9,29.88,WSW,255,0.0,0.0,92,0.00,,---,0.00,VWS V14.01,2013-08-13 07:30:00,
2013-08-13 03:45:00,75.1,72.9,29.88,WSW,255,0.0,1.0,93,0.00,,---,0.00,VWS V14.01,2013-08-13 07:45:00,
2013-08-13 04:00:00,74.7,72.6,29.88,WSW,255,0.0,0.0,93,0.00,,---,0.00,VWS V14.01,2013-08-13 08:00:00,
2013-08-13 04:15:00,74.6,72.8,29.88,WSW,255,0.0,1.0,94,0.00,,---,0.00,VWS V14.01,2013-08-13 08:15:00,
2013-08-13 04:30:00,74.4,72.6,29.88,SW,214,0.0,1.0,94,0.00,,---,0.00,VWS V14.01,2013-08-13 08:30:00,
2013-08-13 04:45:00,74.4,72.9,29.87,SE,129,0.0,1.0,95,0.00,,---,0.00,VWS V14.01,2013-08-13 08:45:00,
2013-08-13 05:00:00,74.2,72.4,29.87,West,278,0.0,2.0,94,0.00,,---,0.00,VWS V14.01,2013-08-13 09:00:00,
2013-08-13 05:15:00,74.0,72.2,29.87,South,174,0.0,1.0,94,0.00,,---,0.00,VWS V14.01,2013-08-13 09:15:00,
2013-08-13 05:30:00,73.9,72.4,29.86,South,175,0.0,0.0,95,0.00,,---,0.00,VWS V14.01,2013-08-13 09:30:00,
2013-08-13 05:45:00,73.7,72.2,29.86,South,175,0.0,0.0,95,0.00,,---,0.00,VWS V14.01,2013-08-13 09:45:00,
2013-08-13 06:00:00,73.6,72.1,29.86,South,174,0.0,0.0,95,0.00,,---,0.00,VWS V14.01,2013-08-13 10:00:00,
2013-08-13 06:15:00,73.4,72.2,29.85,South,174,0.0,0.0,96,0.00,,---,0.00,VWS V14.01,2013-08-13 10:15:00,
2013-08-13 06:30:00,73.2,72.0,29.85,SE,133,0.0,1.0,96,0.00,,---,0.00,VWS V14.01,2013-08-13 10:30:00,
2013-08-13 06:45:00,73.1,71.9,29.86,SE,132,0.0,1.0,96,0.00,,---,0.00,VWS V14.01,2013-08-13 10:45:00,
2013-08-13 07:00:00,73.0,71.8,29.87,SSW,208,0.0,1.0,96,0.00,,---,0.00,VWS V14.01,2013-08-13 11:00:00,
2013-08-13 07:15:00,73.2,72.0,29.86,SE,139,0.0,1.0,96,0.00,,---,0.00,VWS V14.01,2013-08-13 11:15:00,
2013-08-13 07:30:00,73.3,72.1,29.87,SSW,200,0.0,1.0,96,0.00,,---,0.00,VWS V14.01,2013-08-13 11:30:00,
2013-08-13 07:45:00,73.5,72.3,29.87,North,4,0.0,1.0,96,0.00,,---,0.00,VWS V14.01,2013-08-13 11:45:00,
2013-08-13 08:00:00,73.8,72.6,29.88,WSW,249,0.0,2.0,96,0.00,,---,0.00,VWS V14.01,2013-08-13 12:00:00,
2013-08-13 08:15:00,74.3,73.1,29.88,WSW,253,0.0,3.0,96,0.00,,---,0.00,VWS V14.01,2013-08-13 12:15:00,
2013-08-13 08:30:00,74.9,73.4,29.89,NW,324,0.0,2.0,95,0.00,,---,0.00,VWS V14.01,2013-08-13 12:30:00,
2013-08-13 08:45:00,75.4,73.6,29.89,South,183,0.0,2.0,94,0.00,,---,0.00,VWS V14.01,2013-08-13 12:45:00,
2013-08-13 09:00:00,75.8,73.6,29.90,WSW,240,1.0,3.0,93,0.00,,---,0.00,VWS V14.01,2013-08-13 13:00:00,
2013-08-13 09:15:00,76.8,74.3,29.90,NW,324,0.0,4.0,92,0.00,,---,0.00,VWS V14.01,2013-08-13 13:15:00,
2013-08-13 09:30:00,78.1,74.9,29.89,NW,320,0.0,6.0,90,0.00,,---,0.00,VWS V14.01,2013-08-13 13:30:00,
2013-08-13 09:45:00,79.2,75.7,29.89,North,352,3.0,7.0,89,0.00,,---,0.00,VWS V14.01,2013-08-13 13:45:00,
2013-08-13 10:00:00,80.7,76.1,29.88,SE,135,0.0,6.0,86,0.00,,---,0.00,VWS V14.01,2013-08-13 14:00:00,
2013-08-13 10:15:00,81.8,76.5,29.88,NW,309,2.0,6.0,84,0.00,,---,0.00,VWS V14.01,2013-08-13 14:15:00,
2013-08-13 10:31:00,82.6,76.2,29.88,SE,125,1.0,7.0,81,0.00,,---,0.00,VWS V14.01,2013-08-13 14:31:00,
2013-08-13 10:45:00,83.3,76.1,29.88,NE,34,2.0,6.0,79,0.00,,---,0.00,VWS V14.01,2013-08-13 14:45:00,
2013-08-13 11:00:00,84.0,76.4,29.88,West,281,1.0,7.0,78,0.00,,---,0.00,VWS V14.01,2013-08-13 15:00:00,
2013-08-13 11:15:00,84.7,75.1,29.88,NE,56,3.0,9.0,73,0.00,,---,0.00,VWS V14.01,2013-08-13 15:15:00,
2013-08-13 11:30:00,85.7,76.5,29.88,SW,232,8.0,8.0,74,0.00,,---,0.00,VWS V14.01,2013-08-13 15:30:00,
2013-08-13 11:45:00,86.5,75.6,29.87,WNW,288,1.0,8.0,70,0.00,,---,0.00,VWS V14.01,2013-08-13 15:45:00,
2013-08-13 12:00:00,87.2,74.9,29.87,NW,325,5.0,10.0,67,0.00,,---,0.00,VWS V14.01,2013-08-13 16:00:00,
2013-08-13 12:15:00,87.4,75.6,29.87,North,349,2.0,11.0,68,0.00,,---,0.00,VWS V14.01,2013-08-13 16:15:00,
2013-08-13 12:30:00,88.4,76.1,29.86,East,98,0.0,7.0,67,0.00,,---,0.00,VWS V14.01,2013-08-13 16:30:00,
2013-08-13 12:45:00,89.2,75.4,29.85,SW,232,1.0,9.0,64,0.00,,---,0.00,VWS V14.01,2013-08-13 16:45:00,
2013-08-13 13:00:00,89.4,75.6,29.85,SSW,193,2.0,13.0,64,0.00,,---,0.00,VWS V14.01,2013-08-13 17:00:00,
2013-08-13 13:15:00,90.0,76.2,29.84,South,177,1.0,11.0,64,0.00,,---,0.00,VWS V14.01,2013-08-13 17:15:00,
2013-08-13 13:30:00,91.2,74.9,29.83,South,172,2.0,10.0,59,0.00,,---,0.00,VWS V14.01,2013-08-13 17:30:00,
2013-08-13 13:45:00,90.5,75.7,29.83,WNW,285,5.0,9.0,62,0.00,,---,0.00,VWS V14.01,2013-08-13 17:45:00,
2013-08-13 14:00:00,90.6,76.3,29.83,NW,320,6.0,7.0,63,0.00,,---,0.00,VWS V14.01,2013-08-13 18:00:00,
2013-08-13 14:15:00,90.7,74.4,29.82,NNE,23,3.0,14.0,59,0.00,,---,0.00,VWS V14.01,2013-08-13 18:15:00,
2013-08-13 14:30:00,92.3,74.9,29.82,NW,312,7.0,9.0,57,0.00,,---,0.00,VWS V14.01,2013-08-13 18:30:00,
2013-08-13 14:45:00,92.0,74.6,29.81,West,260,1.0,13.0,57,0.00,,---,0.00,VWS V14.01,2013-08-13 18:45:00,
2013-08-13 15:00:00,92.0,74.1,29.80,WNW,291,3.0,12.0,56,0.00,,---,0.00,VWS V14.01,2013-08-13 19:00:00,
2013-08-13 15:15:00,91.7,74.3,29.80,SE,139,1.0,10.0,57,0.00,,---,0.00,VWS V14.01,2013-08-13 19:15:00,
2013-08-13 15:30:00,91.7,73.8,29.80,SSE,149,2.0,11.0,56,0.00,,---,0.00,VWS V14.01,2013-08-13 19:30:00,
2013-08-13 15:45:00,91.8,74.9,29.79,NNW,344,9.0,12.0,58,0.00,,---,0.00,VWS V14.01,2013-08-13 19:45:00,
2013-08-13 16:00:00,91.5,75.7,29.79,NW,326,4.0,9.0,60,0.00,,---,0.00,VWS V14.01,2013-08-13 20:00:00,
2013-08-13 16:15:00,90.7,75.4,29.78,WNW,301,1.0,13.0,61,0.00,,---,0.00,VWS V14.01,2013-08-13 20:15:00,
2013-08-13 16:30:00,90.9,75.1,29.78,ENE,67,3.0,8.0,60,0.00,,---,0.00,VWS V14.01,2013-08-13 20:30:00,
2013-08-13 16:45:00,89.7,75.4,29.78,WNW,300,1.0,12.0,63,0.00,,---,0.00,VWS V14.01,2013-08-13 20:45:00,
2013-08-13 17:00:00,90.4,75.1,29.78,WNW,285,2.0,11.0,61,0.00,,---,0.00,VWS V14.01,2013-08-13 21:00:00,
2013-08-13 17:15:00,89.5,74.3,29.78,WSW,247,4.0,10.0,61,0.00,,---,0.00,VWS V14.01,2013-08-13 21:15:00,
2013-08-13 17:30:00,89.7,75.0,29.78,South,179,1.0,12.0,62,0.00,,---,0.00,VWS V14.01,2013-08-13 21:30:00,
2013-08-13 17:45:00,88.5,74.8,29.78,NNW,336,3.0,9.0,64,0.00,,---,0.00,VWS V14.01,2013-08-13 21:45:00,
2013-08-13 18:00:00,88.9,75.6,29.77,North,358,1.0,8.0,65,0.00,,---,0.00,VWS V14.01,2013-08-13 22:00:00,
2013-08-13 18:15:00,88.4,74.2,29.77,WNW,288,1.0,9.0,63,0.00,,---,0.00,VWS V14.01,2013-08-13 22:15:00,
2013-08-13 18:30:00,87.7,74.0,29.77,West,265,2.0,6.0,64,0.00,,---,0.00,VWS V14.01,2013-08-13 22:30:00,
2013-08-13 18:45:00,86.9,74.2,29.77,NNW,327,2.0,6.0,66,0.00,,---,0.00,VWS V14.01,2013-08-13 22:45:00,
2013-08-13 19:00:00,86.1,74.3,29.77,NNW,333,1.0,4.0,68,0.00,,---,0.00,VWS V14.01,2013-08-13 23:00:00,
2013-08-13 19:15:00,85.3,74.4,29.77,NNW,342,1.0,4.0,70,0.00,,---,0.00,VWS V14.01,2013-08-13 23:15:00,
2013-08-13 19:30:00,84.9,74.4,29.77,WSW,249,0.0,3.0,71,0.00,,---,0.00,VWS V14.01,2013-08-13 23:30:00,
2013-08-13 19:45:00,84.6,74.6,29.77,NNW,345,2.0,4.0,72,0.00,,---,0.00,VWS V14.01,2013-08-13 23:45:00,
2013-08-13 20:00:00,84.3,74.7,29.77,SW,231,1.0,3.0,73,0.00,,---,0.00,VWS V14.01,2013-08-14 00:00:00,
2013-08-13 20:15:00,83.5,74.3,29.77,West,264,0.0,4.0,74,0.00,,---,0.00,VWS V14.01,2013-08-14 00:15:00,
2013-08-13 20:30:00,83.0,74.3,29.78,NE,36,0.0,2.0,75,0.00,,---,0.00,VWS V14.01,2013-08-14 00:30:00,
2013-08-13 20:45:00,82.4,74.1,29.78,West,262,0.0,3.0,76,0.00,,---,0.00,VWS V14.01,2013-08-14 00:45:00,
2013-08-13 21:01:00,81.9,74.0,29.78,WSW,256,0.0,2.0,77,0.00,,---,0.00,VWS V14.01,2013-08-14 01:01:00,
2013-08-13 21:15:00,81.5,74.4,29.78,WSW,251,0.0,1.0,79,0.00,,---,0.00,VWS V14.01,2013-08-14 01:15:00,
2013-08-13 21:30:00,81.0,74.2,29.79,WSW,249,1.0,1.0,80,0.00,,---,0.00,VWS V14.01,2013-08-14 01:30:00,
2013-08-13 21:45:00,80.6,73.9,29.80,WSW,249,0.0,1.0,80,0.00,,---,0.00,VWS V14.01,2013-08-14 01:45:00,
2013-08-13 22:00:00,79.9,73.9,29.80,SSW,201,0.0,0.0,82,0.00,,---,0.00,VWS V14.01,2013-08-14 02:00:00,
2013-08-13 22:16:00,79.4,73.8,29.81,West,264,0.0,1.0,83,0.00,,---,0.00,VWS V14.01,2013-08-14 02:16:00,
2013-08-13 22:30:00,79.7,74.1,29.81,SW,235,0.0,1.0,83,0.00,,---,0.00,VWS V14.01,2013-08-14 02:30:00,
2013-08-13 22:45:00,80.0,74.0,29.81,SSW,203,0.0,1.0,82,0.00,,---,0.00,VWS V14.01,2013-08-14 02:45:00,
2013-08-13 23:00:00,79.9,73.9,29.81,NW,323,0.0,2.0,82,0.00,,---,0.00,VWS V14.01,2013-08-14 03:00:00,
2013-08-13 23:15:00,79.6,74.0,29.81,NW,323,0.0,0.0,83,0.00,,---,0.00,VWS V14.01,2013-08-14 03:15:00,
2013-08-13 23:30:00,79.2,73.9,29.81,NW,323,0.0,0.0,84,0.00,,---,0.00,VWS V14.01,2013-08-14 03:30:00,
2013-08-13 23:45:00,78.8,73.9,29.81,NW,323,0.0,0.0,85,0.00,,---,0.00,VWS V14.01,2013-08-14 03:45:00,